createdAt,value
2023-05-15T00:02:27.954Z,7.17
2023-05-15T00:04:55.047Z,5.67
2023-05-15T00:07:22.123Z,6.50
2023-05-15T00:09:49.138Z,7.30
2023-05-15T00:12:16.195Z,7.10
2023-05-15T00:14:43.188Z,5.97
2023-05-15T00:17:10.673Z,6.10
2023-05-15T00:19:37.686Z,6.30
2023-05-15T00:22:04.782Z,6.60
2023-05-15T00:24:32.278Z,7.33
2023-05-15T00:27:00.471Z,6.33
2023-05-15T00:29:27.746Z,5.83
2023-05-15T00:31:54.932Z,9.23
2023-05-15T00:34:22.926Z,5.37
2023-05-15T00:36:50.215Z,6.43
2023-05-15T00:39:18.063Z,6.20
2023-05-15T00:41:46.378Z,7.53
2023-05-15T00:44:15.328Z,7.30
2023-05-15T00:46:45.442Z,6.43
2023-05-15T00:49:13.754Z,5.73
2023-05-15T00:51:42.176Z,6.20
2023-05-15T00:54:10.965Z,8.40
2023-05-15T00:56:38.806Z,6.17
2023-05-15T00:59:07.809Z,5.60
2023-05-15T01:01:35.173Z,5.67
2023-05-15T01:04:03.708Z,5.17
2023-05-15T01:06:31.925Z,5.90
2023-05-15T01:09:04.453Z,5.77
2023-05-15T01:11:36.557Z,7.00
2023-05-15T01:14:08.322Z,6.60
2023-05-15T01:16:38.769Z,6.53
2023-05-15T01:19:06.022Z,8.10
2023-05-15T01:21:36.530Z,5.73
2023-05-15T01:24:25.612Z,5.90
2023-05-15T01:27:01.706Z,7.47
2023-05-15T01:29:41.226Z,5.73
2023-05-15T01:32:12.718Z,5.80
2023-05-15T01:34:57.579Z,5.97
2023-05-15T01:37:30.862Z,6.60
2023-05-15T01:40:02.746Z,5.47
2023-05-15T01:42:34.552Z,6.43
2023-05-15T01:45:08.289Z,8.37
2023-05-15T01:47:41.909Z,6.37
2023-05-15T01:50:13.408Z,7.30
2023-05-15T01:52:44.932Z,7.13
2023-05-15T01:55:14.722Z,7.37
2023-05-15T01:57:43.542Z,6.87
2023-05-15T02:00:12.162Z,6.90
2023-05-15T02:02:40.613Z,6.63
2023-05-15T02:05:08.615Z,7.10
2023-05-15T02:07:36.053Z,10.43
2023-05-15T02:10:03.837Z,8.33
2023-05-15T02:12:32.290Z,7.57
2023-05-15T02:15:00.721Z,7.20
2023-05-15T02:17:29.552Z,7.87
2023-05-15T02:19:56.869Z,6.83
2023-05-15T02:22:23.837Z,7.07
2023-05-15T02:24:51.035Z,7.60
2023-05-15T02:27:27.287Z,7.17
2023-05-15T02:30:29.565Z,6.90
2023-05-15T02:33:15.043Z,6.60
2023-05-15T02:36:03.158Z,6.50
2023-05-15T02:38:38.863Z,6.20
2023-05-15T02:41:06.795Z,7.30
2023-05-15T02:43:36.634Z,6.40
2023-05-15T02:46:06.703Z,6.90
2023-05-15T02:48:41.061Z,6.67
2023-05-15T02:51:08.873Z,8.33
2023-05-15T02:53:47.252Z,8.30
2023-05-15T02:56:14.304Z,7.03
2023-05-15T02:58:41.869Z,5.83
2023-05-15T03:01:08.853Z,6.77
2023-05-15T03:03:36.148Z,5.83
2023-05-15T03:06:03.348Z,5.43
2023-05-15T03:08:30.686Z,5.40
2023-05-15T03:10:58.316Z,6.03
2023-05-15T03:13:25.572Z,6.53
2023-05-15T03:15:53.377Z,5.77
2023-05-15T03:18:20.393Z,4.97
2023-05-15T03:20:49.269Z,4.90
2023-05-15T03:23:16.484Z,8.77
2023-05-15T03:25:43.485Z,5.33
2023-05-15T03:28:11.610Z,5.97
2023-05-15T03:30:39.825Z,7.87
2023-05-15T03:33:07.079Z,6.07
2023-05-15T03:35:34.026Z,5.60
2023-05-15T03:38:01.366Z,5.30
2023-05-15T03:40:51.252Z,5.87
2023-05-15T03:43:20.672Z,5.70
2023-05-15T03:45:47.678Z,6.33
2023-05-15T03:48:14.870Z,5.90
2023-05-15T03:50:46.201Z,6.30
2023-05-15T03:53:13.178Z,6.40
2023-05-15T03:55:40.576Z,6.10
2023-05-15T03:58:07.568Z,6.80
2023-05-15T04:00:34.794Z,7.60
2023-05-15T04:03:02.100Z,7.20
2023-05-15T04:05:29.208Z,7.27
2023-05-15T04:07:56.195Z,6.80
2023-05-15T04:10:23.269Z,6.40
2023-05-15T04:12:51.934Z,5.23
2023-05-15T04:15:24.434Z,5.23
2023-05-15T04:17:53.362Z,7.73
2023-05-15T04:20:24.767Z,7.87
2023-05-15T04:22:53.015Z,6.87
2023-05-15T04:25:20.868Z,5.80
2023-05-15T04:27:49.176Z,6.67
2023-05-15T04:30:16.941Z,7.90
2023-05-15T04:32:44.723Z,6.93
2023-05-15T04:35:13.881Z,7.00
2023-05-15T04:37:42.464Z,7.23
2023-05-15T04:40:10.737Z,9.20
2023-05-15T04:42:39.248Z,9.33
2023-05-15T04:45:07.617Z,7.20
2023-05-15T04:47:35.633Z,10.40
2023-05-15T04:50:03.053Z,9.57
2023-05-15T04:52:30.113Z,6.40
2023-05-15T04:54:57.312Z,6.27
2023-05-15T04:57:25.645Z,7.83
2023-05-15T04:59:53.360Z,7.33
2023-05-15T05:02:22.494Z,6.63
2023-05-15T05:04:50.262Z,5.63
2023-05-15T05:07:17.282Z,6.07
2023-05-15T05:09:45.004Z,5.47
2023-05-15T05:12:12.226Z,4.57
2023-05-15T05:14:40.706Z,4.60
2023-05-15T05:17:07.765Z,4.60
2023-05-15T05:19:34.925Z,4.40
2023-05-15T05:22:05.891Z,4.70
2023-05-15T05:24:35.523Z,5.00
2023-05-15T05:27:02.547Z,5.10
2023-05-15T05:29:32.996Z,4.70
2023-05-15T16:44:02.142Z,8.48
2023-05-15T16:46:29.223Z,5.55
2023-05-15T16:48:56.576Z,4.90
2023-05-15T16:51:23.819Z,11.15
2023-05-15T16:53:50.967Z,5.05
2023-05-15T16:56:18.196Z,4.75
2023-05-15T16:58:45.245Z,5.40
2023-05-15T17:01:12.258Z,10.90
2023-05-15T17:03:39.356Z,8.98
2023-05-15T17:06:06.906Z,4.40
2023-05-15T17:08:34.932Z,17.13
2023-05-15T17:11:01.936Z,12.23
2023-05-15T17:13:28.891Z,6.13
2023-05-15T17:15:55.873Z,4.75
2023-05-15T17:18:22.900Z,4.03
2023-05-15T17:20:50.155Z,3.30
2023-05-15T17:23:17.376Z,5.90
2023-05-15T17:25:44.658Z,5.65
2023-05-15T17:28:11.645Z,3.53
2023-05-15T17:30:38.918Z,6.70
2023-05-15T17:33:06.140Z,4.22
2023-05-15T17:35:33.579Z,3.95
2023-05-15T17:38:00.687Z,4.43
2023-05-15T17:40:27.956Z,3.58
2023-05-15T17:42:55.193Z,3.37
2023-05-15T17:45:22.419Z,4.97
2023-05-15T17:47:49.493Z,3.22
2023-05-15T17:50:16.544Z,4.07
2023-05-15T17:52:43.591Z,5.47
2023-05-15T17:55:10.618Z,3.15
2023-05-15T17:57:37.630Z,4.50
2023-05-15T18:00:07.172Z,4.90
2023-05-15T18:02:34.753Z,5.67
2023-05-15T18:05:02.124Z,6.33
2023-05-15T18:07:29.061Z,5.33
2023-05-15T18:09:56.072Z,4.73
2023-05-15T18:12:23.142Z,3.93
2023-05-15T18:14:50.050Z,6.40
2023-05-15T18:17:17.632Z,4.10
2023-05-15T18:19:46.977Z,8.00
2023-05-15T18:22:13.972Z,5.53
2023-05-15T18:24:40.931Z,6.33
2023-05-15T18:27:07.836Z,7.33
2023-05-15T18:29:34.857Z,5.80
2023-05-15T18:32:01.901Z,4.63
2023-05-15T18:34:29.210Z,5.10
2023-05-15T18:36:56.199Z,4.50
2023-05-15T18:39:23.468Z,4.83
2023-05-15T18:41:51.250Z,4.43
2023-05-15T18:44:18.485Z,3.23
2023-05-15T18:46:46.442Z,5.20
2023-05-15T18:49:14.231Z,4.37
2023-05-15T18:51:41.469Z,5.13
2023-05-15T18:54:08.677Z,4.73
2023-05-15T18:56:39.187Z,6.40
2023-05-15T18:59:08.754Z,4.90
2023-05-15T19:01:35.851Z,5.93
2023-05-15T19:04:04.084Z,5.47
2023-05-15T19:06:31.348Z,5.07
2023-05-15T19:08:58.370Z,5.87
2023-05-15T19:11:26.208Z,7.53
2023-05-15T19:13:56.224Z,5.23
2023-05-15T19:16:27.136Z,5.57
2023-05-15T19:18:55.122Z,5.70
2023-05-15T19:21:22.159Z,5.43
2023-05-15T19:23:50.865Z,8.13
2023-05-15T19:26:18.150Z,6.77
2023-05-15T19:28:45.184Z,6.27
2023-05-15T19:31:27.580Z,6.27
2023-05-15T19:33:58.373Z,5.13
2023-05-15T19:36:25.454Z,5.33
2023-05-15T19:38:52.705Z,6.40
2023-05-15T19:41:19.727Z,7.30
2023-05-15T19:43:47.245Z,7.63
2023-05-15T19:46:14.563Z,7.30
2023-05-15T19:48:41.578Z,7.13
2023-05-15T19:51:09.043Z,6.77
2023-05-15T19:53:39.462Z,6.00
2023-05-15T19:56:06.702Z,7.37
2023-05-15T19:58:33.702Z,6.80
2023-05-15T20:01:00.700Z,7.87
2023-05-15T20:03:33.018Z,7.83
2023-05-15T20:06:03.480Z,6.90
2023-05-15T20:08:30.798Z,5.70
2023-05-15T20:10:58.250Z,7.23
2023-05-15T20:13:25.265Z,7.37
2023-05-15T20:15:59.808Z,10.57
2023-05-15T20:18:28.088Z,6.77
2023-05-15T20:20:56.580Z,6.70
2023-05-15T20:23:23.661Z,8.00
2023-05-15T20:25:51.379Z,7.20
2023-05-15T20:28:18.610Z,6.73
2023-05-15T20:30:47.449Z,5.83
2023-05-15T20:33:14.661Z,6.60
2023-05-15T20:35:43.522Z,7.37
2023-05-15T20:38:11.867Z,5.00
2023-05-15T20:40:39.326Z,5.83
2023-05-15T20:43:06.657Z,5.00
2023-05-15T20:45:34.095Z,7.20
2023-05-15T20:48:01.471Z,5.20
2023-05-15T20:50:29.319Z,6.50
2023-05-15T20:52:56.554Z,5.27
2023-05-15T20:55:23.650Z,6.40
2023-05-15T20:57:52.003Z,5.87
2023-05-15T21:00:20.288Z,6.97
2023-05-15T21:02:47.493Z,5.70
2023-05-15T21:05:14.823Z,6.47
2023-05-15T21:07:41.861Z,6.17
2023-05-15T21:10:09.402Z,6.23
2023-05-15T21:12:36.415Z,6.53
2023-05-15T21:15:04.361Z,7.63
2023-05-15T21:17:34.190Z,6.37
2023-05-15T21:20:02.032Z,6.00
2023-05-15T21:22:28.989Z,5.60
2023-05-15T21:24:55.997Z,6.67
2023-05-15T21:27:23.524Z,6.70
2023-05-15T21:29:50.847Z,7.87
2023-05-15T21:32:17.856Z,9.17
2023-05-15T21:34:44.847Z,7.90
2023-05-15T21:37:12.294Z,8.43
2023-05-15T21:39:39.459Z,6.97
2023-05-15T21:42:06.573Z,7.47
2023-05-15T21:44:34.900Z,8.80
2023-05-15T21:47:02.164Z,8.03
2023-05-15T21:49:29.409Z,7.63
2023-05-15T21:51:57.095Z,8.50
2023-05-15T21:54:24.078Z,9.00
2023-05-15T21:56:52.203Z,9.83
2023-05-15T21:59:19.196Z,8.77
2023-05-15T22:01:46.446Z,8.77
2023-05-15T22:04:13.533Z,8.60
2023-05-15T22:06:41.075Z,11.23
2023-05-15T22:09:08.083Z,8.63
2023-05-15T22:11:35.298Z,8.40
2023-05-15T22:14:02.307Z,8.67
2023-05-15T22:16:29.339Z,9.63
2023-05-15T22:18:56.450Z,10.80
2023-05-15T22:21:23.741Z,9.70
2023-05-15T22:23:50.973Z,11.40
2023-05-15T22:26:19.901Z,10.13
2023-05-15T22:28:48.736Z,10.60
2023-05-15T22:31:15.789Z,10.60
2023-05-15T22:33:42.854Z,10.47
2023-05-15T22:36:09.991Z,11.43
2023-05-15T22:38:37.205Z,10.33
2023-05-15T22:41:04.982Z,12.37
2023-05-15T22:43:32.503Z,10.87
2023-05-15T22:45:59.674Z,12.90
2023-05-15T22:48:26.855Z,11.40
2023-05-15T22:50:53.972Z,15.93
2023-05-15T22:53:21.022Z,15.90
2023-05-15T22:55:48.092Z,22.53
2023-05-15T22:58:16.160Z,14.93
2023-05-15T23:00:43.138Z,17.83
2023-05-15T23:03:10.486Z,14.30
2023-05-15T23:05:37.796Z,14.60
2023-05-15T23:08:05.128Z,17.37
2023-05-15T23:10:32.293Z,15.47
2023-05-15T23:12:59.471Z,15.60
2023-05-15T23:15:26.653Z,17.37
2023-05-15T23:17:53.645Z,18.23
2023-05-15T23:20:20.712Z,18.43
2023-05-15T23:22:47.695Z,19.93
2023-05-15T23:25:14.971Z,17.77
2023-05-15T23:27:41.899Z,17.97
2023-05-15T23:30:10.075Z,15.37
2023-05-15T23:32:37.158Z,20.43
2023-05-15T23:35:04.417Z,64.27
2023-05-15T23:37:31.399Z,16.33
2023-05-15T23:39:58.614Z,15.17
2023-05-15T23:42:25.579Z,15.17
2023-05-15T23:44:52.844Z,21.20
2023-05-15T23:47:19.878Z,16.20
2023-05-15T23:49:46.934Z,40.80
2023-05-15T23:52:13.937Z,16.47
2023-05-15T23:54:41.024Z,20.27
2023-05-15T23:57:08.116Z,16.23
2023-05-15T23:59:35.147Z,25.77
